18h32 EDT


 

Suivi/Infos de l'aéroport


-ou-


 

Suivi des vols en temps réelTradewind #590 ✈ 30-09-2013 ✈ KACK - KHPN

Thumbnail
Tradewind 590
GPD590 · "Goodspeed" (tous les vols)
Nantucket Memorial ()
Westchester County ()
09h06 EDT
09h52 EDT
Prévu: 08h30 EDT
Prévu: 09h15 EDT
Durée: 46 minutes
lundi, 30 septembre 2013
Statut A atterri il y a 51 semaines. (journal de vol & graphique)
Avion Pilatus PC-12 (monoturbopropulseur) (PC12/R – photos)
Vitesse Plan de vol: 250 kts (graphique)
Altitude Plan de vol: 10.000 Pieds (graphique)
Distance En ligne droite 306 km    Parcourue 308 km
Route MVY SEY V34 CREAM BDR BDR288 RYMES (Décoder)
JOURNAL DE L'ACTIVITE
Vous voulez une recherche complète sur l'historique de GPD590 depuis 1998? Achetez maintenant. Recevez-le dans l'heure.
Date Avion Provenance Destination Départ Arrivée Durée
22-09-2014 PC12/GWestchester County ()Nantucket Memorial () 08h27 EDT 09h10 EDT 0:43
22-09-2014 PC12/GMartha's Vineyard ()Teterboro () 06h10 EDT 06h59 EDT 0:49
22-09-2014 PC12/GWaterbury-Oxford ()Martha's Vineyard () 05h09 EDT 05h40 EDT 0:31
22-09-2014 PC12/GWaterbury-Oxford ()Nantucket Memorial () 05h09 EDT Dérouté
21-09-2014 PC12/GWestchester County ()Waterbury-Oxford () 21h13 EDT 21h24 EDT 0:11
21-09-2014 PC12/GNantucket Memorial ()Westchester County () 19h47 EDT 20h40 EDT 0:53
21-09-2014 PC12/GGroton-New London ()Nantucket Memorial () 18h33 EDT 19h13 EDT 0:39
21-09-2014 PC12/GNantucket Memorial ()Westchester County () 16h47 EDT 17h48 EDT 1:01
21-09-2014 PC12/GWestchester County ()Nantucket Memorial () 15h20 EDT 16h18 EDT 0:58
21-09-2014 PC12/GNantucket Memorial ()Westchester County () 13h36 EDT 14h27 EDT 0:51
21-09-2014 PC12/GMartha's Vineyard ()Nantucket Memorial () 12h39 EDT 13h07 EDT 0:28
21-09-2014 PC12/GWaterbury-Oxford ()Martha's Vineyard () 11h37 EDT 12h13 EDT 0:35
19-09-2014 PC12/GMartha's Vineyard ()Waterbury-Oxford () 20h53 EDT 21h21 EDT 0:28
19-09-2014 PC12/GNantucket Memorial ()Teterboro () 17h09 EDT 17h57 EDT 0:48
19-09-2014 PC12/GTeterboro ()Nantucket Memorial () 15h55 EDT 16h40 EDT 0:45
19-09-2014 PC12/GWaterbury-Oxford ()Teterboro () 14h32 EDT 14h50 EDT 0:17
18-09-2014 PC12Cape Cod Coast Guard Air Station ()Waterbury-Oxford () 20h04 EDT 20h43 EDT 0:39
18-09-2014 PC12Teterboro ()Nantucket Memorial () 18h54 EDT 19h37 EDT 0:43
18-09-2014 PC12Nantucket Memorial ()Teterboro () 17h23 EDT 18h11 EDT 0:48
18-09-2014 PC12Teterboro ()Nantucket Memorial () 15h37 EDT 16h17 EDT 0:39
14-09-2014 PC12Nantucket Memorial ()Teterboro () 20h00 EDT 20h49 EDT 0:49
14-09-2014 PC12Teterboro ()Nantucket Memorial () 15h08 EDT 16h03 EDT 0:54
14-09-2014 PC12Nantucket Memorial ()Teterboro () 13h30 EDT 14h24 EDT 0:54
12-09-2014 PC12/GTeterboro ()Nantucket Memorial () 19h10 EDT 19h59 EDT 0:49
12-09-2014 PC12/GNantucket Memorial ()Teterboro () 17h19 EDT 18h07 EDT 0:48
12-09-2014 PC12Teterboro ()Nantucket Memorial () 15h53 EDT 16h32 EDT 0:39
12-09-2014 PC12/GWaterbury-Oxford ()Teterboro () 14h09 EDT 14h24 EDT 0:15
11-09-2014 PC12/GRepublic ()Waterbury-Oxford () 17h29 EDT 17h42 EDT 0:13
11-09-2014 PC12/GRepublic ()Elizabeth Field () 08h36 EDT 09h01 EDT 0:25
11-09-2014 PC12/GWestchester County ()Republic () 06h45 EDT 06h56 EDT 0:11
Les membres inscrits (l'inscription est gratuite et facile!) voient 4 months d'historique. S'inscrire